Fort Smith Regional Airport
KFSM : now visible

Aeroporto :











RITROVATECI SU...

 
LOGIN :

Iscrizione | Disclaimer

   EN    FR    IT 

 









Sommario :    VFR   VFR Marginale   IFR   IFR Intensivo   IFR Molto Intensivo
Visibilità : 
Base nubi : 
>= 8 km
>= 3000ft
5 / 8 km
1000 / 3000 ft
1500m / 5 km
500 / 1000 ft
800 / 1500m
200 / 500 ft
< 800m
< 200 ft
Simboli :   Temporali  Nebbia  Neve Forte  Precipitazioni Forti  Vento > 20 kt






- Altitudine del aeroporto : 469 ft
- Codice IATA : FSM


KFSM - Fort Smith Regional

ULTIMO METAR :
  • 182053Z 35021G32KT 10SM CLR 11/M04 A3031 RMK AO2 PK WND 35032/2050 SLP265 T01061044 53001

METARs OBSOLETI :
  • 181953Z 33014G23KT 10SM CLR 11/01 A3031 RMK AO2 SLP263 T01060006
  • 181853Z 32012G20KT 10SM CLR 11/03 A3031 RMK AO2 SLP264 T01060033
  • 181819Z 31013G22KT 10SM SCT025 BKN030 09/04 A3031 RMK AO2 T00940044

TAF KFSM
Valido dal 18 a 18 ore il 19 a 18 ore UTC


181729Z 1818/1918 33015G23KT P6SM SKC
FM190000 34010KT P6SM SKC
FM190600 32004KT P6SM SKC



MetMap, La meteo Aeronautica in un colpo d'occhio ! - Copyright ORBIFLY Dicembre 2007 - Disclaimer

ORBIFLY MET'MAP TEAM :

Programmazione e sviluppo : Alexandra Zaïnal
Concezione : Baudouin d'Aumeries
Aiuto per la programmazione : Marc-Olivier Méhu
Supporto tecnico e logistico : Manuel Goepfert
Aiuto per la traduzione : Arnaldo La Scala

Contatto : metmap@orbifly.com




FONTI E CREDITI :

   NOAA       Earth
Advisory